Terminal Aerodrome Forecast
Issued by NWS

Home | Current Version | Previous Version | Graphics & Text | Print | Product List | Glossary On
Versions: 1 2 3 4 5 6 7 8 9 10 11 12 13 14 15 16 17 18 19 20 21 22 23 24 25 26 27 28 29 30 31 32
000
FTUS43 KGRB 211100
TAFRHI
TAF
KRHI 211120Z 2112/2212 17005KT P6SM SCT035 BKN050 WS010/22030KT
     FM211400 19010G18KT P6SM SCT035 SCT080
     FM212300 18007KT P6SM SCT040
     FM220400 17006KT P6SM SCT070 SCT250 WS015/21030KT
     FM220800 16005KT P6SM SCT050 BKN080 WS015/22035KT PROB30
      2208/2212 2SM TSRA BKN018CB=

USA.gov is the U.S. government's official web portal to all federal, state and local government web resources and services.